createdAt,value
2018-03-21T00:00:53.335Z,5.50
2018-03-21T00:01:53.350Z,5.50
2018-03-21T00:02:53.370Z,5.70
2018-03-21T00:03:53.385Z,5.60
2018-03-21T00:04:53.401Z,5.50
2018-03-21T00:05:53.420Z,6.20
2018-03-21T00:06:53.443Z,5.70
2018-03-21T00:07:53.464Z,5.80
2018-03-21T00:08:53.477Z,5.50
2018-03-21T00:09:53.497Z,5.70
2018-03-21T00:10:53.516Z,5.70
2018-03-21T00:11:53.530Z,6.00
2018-03-21T00:12:53.552Z,5.70
2018-03-21T00:13:53.570Z,6.00
2018-03-21T00:14:53.595Z,5.70
2018-03-21T00:15:53.612Z,5.70
2018-03-21T00:16:53.624Z,5.70
2018-03-21T00:17:53.645Z,5.80
2018-03-21T00:18:53.659Z,5.50
2018-03-21T00:19:53.690Z,5.70
2018-03-21T00:20:53.702Z,5.50
2018-03-21T00:21:53.714Z,5.30
2018-03-21T00:22:53.744Z,5.70
2018-03-21T00:23:53.754Z,5.80
2018-03-21T00:24:53.773Z,5.50
2018-03-21T00:25:53.789Z,5.80
2018-03-21T00:26:53.810Z,5.70
2018-03-21T00:27:53.834Z,5.80
2018-03-21T00:28:53.845Z,5.60
2018-03-21T00:29:53.864Z,5.30
2018-03-21T00:30:53.883Z,5.60
2018-03-21T00:31:53.902Z,5.80
2018-03-21T00:32:53.918Z,5.50
2018-03-21T00:33:53.943Z,5.80
2018-03-21T00:34:53.958Z,5.60
2018-03-21T00:35:53.979Z,5.50
2018-03-21T00:36:53.994Z,8.40
2018-03-21T00:37:54.008Z,5.70
2018-03-21T00:38:54.030Z,6.30
2018-03-21T00:39:54.051Z,6.50
2018-03-21T00:40:54.067Z,6.50
2018-03-21T00:41:54.086Z,7.20
2018-03-21T00:42:54.103Z,6.50
2018-03-21T00:43:54.123Z,6.20
2018-03-21T00:44:54.141Z,6.10
2018-03-21T00:45:54.156Z,6.20
2018-03-21T00:46:54.178Z,5.90
2018-03-21T00:47:54.192Z,5.90
2018-03-21T00:48:54.208Z,5.50
2018-03-21T00:49:54.227Z,5.80
2018-03-21T00:50:54.248Z,5.60
2018-03-21T00:51:54.264Z,6.20
2018-03-21T00:52:54.288Z,5.80
2018-03-21T00:53:54.302Z,5.60
2018-03-21T00:54:54.319Z,5.50
2018-03-21T00:55:54.341Z,5.60
2018-03-21T00:56:54.354Z,5.90
2018-03-21T00:57:54.377Z,6.00
2018-03-21T00:58:54.402Z,5.90
2018-03-21T00:59:54.411Z,5.70
2018-03-21T01:00:54.428Z,6.00
2018-03-21T01:01:54.446Z,5.80
2018-03-21T01:02:54.464Z,6.00
2018-03-21T01:03:54.482Z,6.00
2018-03-21T01:04:54.503Z,6.50
2018-03-21T01:05:54.516Z,5.90
2018-03-21T01:06:54.537Z,5.80
2018-03-21T01:07:54.556Z,5.80
2018-03-21T01:08:54.570Z,6.40
2018-03-21T01:09:54.591Z,6.00
2018-03-21T01:10:54.606Z,5.80
2018-03-21T01:11:54.625Z,6.40
2018-03-21T01:12:54.646Z,5.80
2018-03-21T01:13:54.666Z,6.10
2018-03-21T01:14:54.682Z,6.00
2018-03-21T01:15:54.710Z,5.90
2018-03-21T01:16:54.717Z,5.90
2018-03-21T01:17:54.734Z,5.80
2018-03-21T01:18:54.752Z,5.70
2018-03-21T01:19:54.770Z,5.90
2018-03-21T01:20:54.787Z,5.90
2018-03-21T01:21:54.807Z,5.70
2018-03-21T01:22:54.825Z,5.60
2018-03-21T01:23:54.842Z,5.60
2018-03-21T01:24:54.859Z,5.80
2018-03-21T01:25:54.876Z,5.90
2018-03-21T01:26:54.895Z,5.60
2018-03-21T01:27:54.912Z,5.80
2018-03-21T01:28:54.939Z,5.70
2018-03-21T01:29:54.953Z,5.30
2018-03-21T01:30:54.971Z,5.70
2018-03-21T01:31:54.984Z,6.20
2018-03-21T01:32:55.001Z,5.80
2018-03-21T01:33:55.031Z,5.40
2018-03-21T01:34:55.038Z,6.00
2018-03-21T01:35:55.058Z,5.70
2018-03-21T01:36:55.073Z,6.00
2018-03-21T01:37:55.094Z,5.50
2018-03-21T01:38:55.113Z,5.80
2018-03-21T01:39:55.129Z,6.30
2018-03-21T01:40:55.143Z,6.40
2018-03-21T01:41:55.171Z,6.10
2018-03-21T01:42:55.178Z,6.00
2018-03-21T01:43:55.197Z,5.90
2018-03-21T01:44:55.215Z,5.90
2018-03-21T01:45:55.232Z,5.70
2018-03-21T01:46:55.253Z,5.60
2018-03-21T01:47:55.276Z,5.60
2018-03-21T01:48:55.295Z,5.70
2018-03-21T01:49:55.562Z,6.10
2018-03-21T01:50:55.322Z,5.50
2018-03-21T01:51:55.343Z,6.10
2018-03-21T01:52:55.362Z,6.00
2018-03-21T01:53:55.378Z,5.60
2018-03-21T01:54:55.394Z,5.90
2018-03-21T01:55:55.414Z,5.80
2018-03-21T01:56:55.433Z,5.80
2018-03-21T01:57:55.451Z,5.30
2018-03-21T01:58:55.471Z,5.60
2018-03-21T01:59:55.482Z,5.90
2018-03-21T02:00:55.503Z,5.70
2018-03-21T02:01:55.516Z,5.80
2018-03-21T02:02:55.540Z,5.40
2018-03-21T02:03:55.556Z,5.10
2018-03-21T02:04:55.584Z,5.00
2018-03-21T02:05:55.592Z,4.50
2018-03-21T02:06:55.606Z,4.90
2018-03-21T02:07:55.625Z,4.70
2018-03-21T02:08:55.642Z,4.50
2018-03-21T02:09:55.656Z,5.00
2018-03-21T02:10:55.927Z,4.90
2018-03-21T02:11:55.699Z,5.00
2018-03-21T02:12:55.718Z,5.30
2018-03-21T02:13:55.726Z,5.30
2018-03-21T02:14:55.750Z,5.50
2018-03-21T02:15:55.761Z,5.40
2018-03-21T02:16:55.785Z,5.50
2018-03-21T02:17:55.805Z,5.10
2018-03-21T02:18:55.820Z,5.00
2018-03-21T02:19:55.832Z,5.60
2018-03-21T02:20:55.854Z,4.80
2018-03-21T02:21:55.871Z,4.90
2018-03-21T02:22:55.888Z,4.50
2018-03-21T02:23:55.901Z,4.30
2018-03-21T02:24:55.918Z,4.60
2018-03-21T02:25:55.934Z,4.30
2018-03-21T02:26:55.949Z,4.50
2018-03-21T02:27:55.971Z,4.40
2018-03-21T02:28:55.988Z,4.80
2018-03-21T02:29:56.001Z,4.40
2018-03-21T02:30:56.021Z,4.60
2018-03-21T02:31:56.039Z,4.30
2018-03-21T02:32:56.302Z,4.40
2018-03-21T02:33:56.070Z,4.30
2018-03-21T02:34:56.084Z,4.80
2018-03-21T02:35:56.109Z,4.00
2018-03-21T02:36:56.126Z,4.40
2018-03-21T02:37:56.150Z,4.30
2018-03-21T02:38:56.158Z,4.60
2018-03-21T02:39:56.179Z,4.40
2018-03-21T02:40:56.196Z,4.70
2018-03-21T02:41:56.209Z,4.30
2018-03-21T02:42:56.225Z,4.50
2018-03-21T02:43:56.247Z,4.20
2018-03-21T02:44:56.263Z,4.50
2018-03-21T02:45:56.284Z,4.50
2018-03-21T02:46:56.294Z,4.20
2018-03-21T02:47:56.312Z,4.20
2018-03-21T02:48:56.329Z,4.30
2018-03-21T02:49:56.346Z,4.40
2018-03-21T02:50:56.359Z,4.30
2018-03-21T02:51:56.383Z,4.70
2018-03-21T02:52:56.403Z,4.80
2018-03-21T02:53:56.412Z,4.70
2018-03-21T02:54:56.430Z,4.30
2018-03-21T02:55:56.453Z,4.50
2018-03-21T02:56:56.470Z,4.20
2018-03-21T02:57:56.490Z,4.40
2018-03-21T02:58:56.501Z,4.90
2018-03-21T02:59:56.512Z,4.30
2018-03-21T03:00:56.533Z,4.20
2018-03-21T03:01:56.552Z,4.20
2018-03-21T03:02:56.567Z,4.70
2018-03-21T03:03:56.583Z,4.50
2018-03-21T03:04:56.600Z,4.50
2018-03-21T03:05:56.624Z,4.70
2018-03-21T03:06:56.632Z,4.90
2018-03-21T03:07:56.661Z,4.70
2018-03-21T03:08:56.668Z,4.60
2018-03-21T03:09:56.686Z,4.50
2018-03-21T03:10:56.701Z,4.30
2018-03-21T03:11:56.722Z,4.70
2018-03-21T03:12:56.737Z,4.80
2018-03-21T03:13:56.762Z,4.70
2018-03-21T03:14:56.776Z,4.40
2018-03-21T03:15:56.787Z,4.30
2018-03-21T03:16:56.809Z,4.30
2018-03-21T03:17:56.821Z,4.30
2018-03-21T03:18:56.837Z,4.20
2018-03-21T03:19:56.861Z,4.50
2018-03-21T03:20:56.873Z,4.60
2018-03-21T03:21:56.893Z,4.40
2018-03-21T03:22:56.906Z,4.30
2018-03-21T03:23:56.927Z,4.30
2018-03-21T03:24:56.945Z,4.70
2018-03-21T03:25:56.959Z,4.40
2018-03-21T03:26:56.976Z,4.20
2018-03-21T03:27:56.996Z,4.50
2018-03-21T03:28:57.011Z,4.50
2018-03-21T03:29:57.028Z,4.60
2018-03-21T03:30:57.042Z,4.70
2018-03-21T03:31:57.062Z,4.30
2018-03-21T03:32:57.076Z,4.40
2018-03-21T03:33:57.097Z,4.20
2018-03-21T03:34:57.114Z,4.50
2018-03-21T03:35:57.130Z,3.90
2018-03-21T03:36:57.146Z,4.30
2018-03-21T03:37:57.161Z,4.30
2018-03-21T03:38:57.178Z,4.10
2018-03-21T03:39:57.202Z,4.20
2018-03-21T03:40:57.216Z,4.30
2018-03-21T03:41:57.232Z,4.50
2018-03-21T03:42:57.251Z,4.00
2018-03-21T03:43:57.267Z,3.90
2018-03-21T03:44:57.281Z,4.10
2018-03-21T03:45:57.301Z,4.00
2018-03-21T03:46:57.319Z,4.10
2018-03-21T03:47:57.336Z,4.50
2018-03-21T03:48:57.350Z,4.10
2018-03-21T03:49:57.364Z,4.40
2018-03-21T03:50:57.385Z,4.10
2018-03-21T03:51:57.405Z,4.30
2018-03-21T03:52:57.418Z,4.20
2018-03-21T03:53:57.436Z,4.20
2018-03-21T03:54:57.453Z,4.00
2018-03-21T03:55:57.468Z,4.70
2018-03-21T03:56:57.484Z,4.20
2018-03-21T03:57:57.504Z,4.40
2018-03-21T03:58:57.513Z,4.50
2018-03-21T03:59:57.534Z,4.00
2018-03-21T04:00:57.550Z,4.40
2018-03-21T04:01:57.568Z,4.40
2018-03-21T04:02:57.595Z,4.20
2018-03-21T04:03:57.860Z,4.50
2018-03-21T04:04:57.617Z,4.10
2018-03-21T04:05:57.634Z,4.50
2018-03-21T04:06:57.654Z,4.60
2018-03-21T04:07:57.677Z,4.50
2018-03-21T04:08:57.693Z,4.60
2018-03-21T04:09:57.727Z,4.30
2018-03-21T04:10:57.717Z,4.60
2018-03-21T04:11:57.741Z,4.60
2018-03-21T04:12:57.758Z,4.00
2018-03-21T04:13:57.773Z,4.40
2018-03-21T04:14:57.788Z,4.60
2018-03-21T04:15:57.803Z,4.70
2018-03-21T04:16:57.822Z,4.30
2018-03-21T04:17:57.886Z,4.50
2018-03-21T04:18:57.859Z,4.70
2018-03-21T04:19:57.877Z,4.20
2018-03-21T04:20:57.891Z,4.50
2018-03-21T04:21:57.909Z,4.50
2018-03-21T04:22:57.951Z,4.40
2018-03-21T04:23:57.943Z,4.90
2018-03-21T04:24:57.957Z,4.40
2018-03-21T04:25:57.978Z,4.50
2018-03-21T04:26:57.995Z,4.70
2018-03-21T04:27:58.010Z,4.40
2018-03-21T04:28:58.024Z,4.50
2018-03-21T04:29:58.042Z,4.40
2018-03-21T04:30:58.057Z,4.60
2018-03-21T04:31:58.079Z,4.50
2018-03-21T04:32:58.095Z,4.80
2018-03-21T04:33:58.110Z,4.60
2018-03-21T04:34:58.126Z,4.90
2018-03-21T04:35:58.140Z,5.40
2018-03-21T04:36:58.160Z,4.80
2018-03-21T04:37:58.175Z,4.80
2018-03-21T04:38:58.191Z,4.80
2018-03-21T04:39:58.208Z,4.90
2018-03-21T04:40:58.220Z,5.10
2018-03-21T04:41:58.242Z,4.70
2018-03-21T04:42:58.261Z,5.00
2018-03-21T04:43:58.272Z,5.00
2018-03-21T04:44:58.294Z,4.90
2018-03-21T04:45:58.304Z,5.10
2018-03-21T04:46:58.322Z,4.90
2018-03-21T04:47:58.340Z,4.80
2018-03-21T04:48:58.361Z,4.80
2018-03-21T04:49:58.376Z,4.50
2018-03-21T04:50:58.387Z,4.90
2018-03-21T04:51:58.409Z,4.10
2018-03-21T04:52:58.421Z,4.00
2018-03-21T04:53:58.439Z,4.90
2018-03-21T04:54:58.462Z,4.30
2018-03-21T04:55:58.475Z,4.50
2018-03-21T04:56:58.494Z,4.60
2018-03-21T04:57:58.509Z,4.30
2018-03-21T04:58:58.524Z,4.30
2018-03-21T04:59:58.543Z,4.40
2018-03-21T05:00:58.557Z,3.90
2018-03-21T05:01:58.595Z,4.60
2018-03-21T05:02:58.588Z,4.30
2018-03-21T05:03:58.609Z,4.20
2018-03-21T05:04:58.623Z,4.10
2018-03-21T05:05:58.642Z,4.40
2018-03-21T05:06:58.659Z,4.10
2018-03-21T05:07:58.680Z,4.60
2018-03-21T05:08:58.691Z,4.70
2018-03-21T05:09:58.709Z,4.00
2018-03-21T05:10:58.728Z,4.30
2018-03-21T05:11:58.739Z,4.20
2018-03-21T05:12:58.754Z,4.60
2018-03-21T05:13:58.773Z,4.10
2018-03-21T05:14:58.792Z,4.40
2018-03-21T05:15:58.808Z,4.50
2018-03-21T05:16:58.825Z,4.20
2018-03-21T05:17:58.846Z,4.60
2018-03-21T05:18:58.858Z,4.30
2018-03-21T05:19:58.890Z,4.20
2018-03-21T05:20:58.896Z,4.50
2018-03-21T05:21:58.907Z,4.60
2018-03-21T05:22:58.919Z,4.40
2018-03-21T05:23:58.936Z,4.20
2018-03-21T05:24:58.957Z,4.50
2018-03-21T05:25:58.978Z,4.40
2018-03-21T05:26:58.996Z,4.60
2018-03-21T05:27:59.012Z,4.50
2018-03-21T05:28:59.023Z,4.80
2018-03-21T05:29:59.038Z,4.20
2018-03-21T05:30:59.057Z,4.30
2018-03-21T05:31:59.077Z,4.50
2018-03-21T05:32:59.089Z,4.60
2018-03-21T05:33:59.107Z,4.30
2018-03-21T05:34:59.122Z,4.60
2018-03-21T05:35:59.137Z,4.40
2018-03-21T05:36:59.156Z,4.50
2018-03-21T05:37:59.172Z,4.60
2018-03-21T05:38:59.189Z,4.30
2018-03-21T05:39:59.203Z,4.50
2018-03-21T05:40:59.233Z,5.00
2018-03-21T05:41:59.242Z,5.20
2018-03-21T05:42:59.270Z,4.30
2018-03-21T05:43:59.275Z,4.90
2018-03-21T05:44:59.289Z,4.80
2018-03-21T05:45:59.306Z,4.90
2018-03-21T05:46:59.320Z,4.60
2018-03-21T05:47:59.343Z,4.90
2018-03-21T05:48:59.356Z,4.60
2018-03-21T05:49:59.376Z,4.50
2018-03-21T05:50:59.386Z,4.50
2018-03-21T05:51:59.404Z,4.70
2018-03-21T05:52:59.425Z,4.90
2018-03-21T05:53:59.437Z,4.60
2018-03-21T05:54:59.459Z,4.50
2018-03-21T05:55:59.472Z,4.50
2018-03-21T05:56:59.492Z,4.30
2018-03-21T05:57:59.506Z,4.50
2018-03-21T05:58:59.527Z,4.60
2018-03-21T05:59:59.544Z,4.20
2018-03-21T06:00:59.557Z,4.40
2018-03-21T06:01:59.570Z,4.50
2018-03-21T06:02:59.589Z,4.30
2018-03-21T06:03:59.605Z,4.90
2018-03-21T06:04:59.624Z,4.70
2018-03-21T06:05:59.637Z,4.80
2018-03-21T06:06:59.655Z,4.80
2018-03-21T06:07:59.675Z,4.60
2018-03-21T06:08:59.696Z,4.80
2018-03-21T06:09:59.711Z,4.50
2018-03-21T06:10:59.723Z,4.90
2018-03-21T06:11:59.736Z,5.00
2018-03-21T06:12:59.763Z,4.80
2018-03-21T06:13:59.771Z,4.60
2018-03-21T06:14:59.787Z,4.80
2018-03-21T06:15:59.805Z,5.00
2018-03-21T06:16:59.820Z,4.40
2018-03-21T06:17:59.838Z,6.80
2018-03-21T06:18:59.854Z,7.70
2018-03-21T06:19:59.868Z,7.10
2018-03-21T06:20:59.888Z,6.70
2018-03-21T06:21:59.908Z,8.00
2018-03-21T06:22:59.927Z,7.80
2018-03-21T06:23:59.938Z,9.00
2018-03-21T06:24:59.953Z,8.80
2018-03-21T06:25:59.978Z,8.60
2018-03-21T06:26:59.993Z,8.80
2018-03-21T06:28:00.003Z,8.90
2018-03-21T06:29:00.024Z,8.50
2018-03-21T06:30:00.056Z,9.00
2018-03-21T06:31:00.055Z,8.70
2018-03-21T06:32:00.112Z,8.00
2018-03-21T06:33:00.089Z,8.70
2018-03-21T06:34:00.102Z,8.00
2018-03-21T06:35:00.123Z,8.10
2018-03-21T06:36:00.138Z,8.50
2018-03-21T06:37:00.154Z,8.20
2018-03-21T06:38:00.216Z,7.20
2018-03-21T06:39:00.189Z,7.40
2018-03-21T06:40:00.207Z,7.40
2018-03-21T06:41:00.224Z,7.50
2018-03-21T06:42:00.242Z,6.80
2018-03-21T06:43:00.261Z,6.40
2018-03-21T06:44:00.273Z,6.50
2018-03-21T06:45:00.293Z,6.80
2018-03-21T06:46:00.311Z,6.60
2018-03-21T06:47:00.326Z,6.10
2018-03-21T06:48:00.343Z,6.00
2018-03-21T06:49:00.361Z,6.10
2018-03-21T06:50:00.420Z,6.20
2018-03-21T06:51:00.394Z,6.30
2018-03-21T06:52:00.411Z,5.90
2018-03-21T06:53:00.421Z,6.00
2018-03-21T06:54:00.445Z,5.90
2018-03-21T06:55:00.456Z,5.80
2018-03-21T06:56:00.480Z,6.00
2018-03-21T06:57:00.492Z,5.30
2018-03-21T06:58:00.515Z,5.50
2018-03-21T06:59:00.534Z,5.40
2018-03-21T07:00:00.546Z,5.10
2018-03-21T07:01:00.563Z,5.50
2018-03-21T07:02:00.580Z,5.40
2018-03-21T07:03:00.596Z,6.00
2018-03-21T07:04:00.613Z,5.40
2018-03-21T07:05:00.631Z,5.00
2018-03-21T07:06:00.645Z,5.60
2018-03-21T07:07:00.669Z,5.00
2018-03-21T07:08:00.682Z,5.60
2018-03-21T07:09:00.695Z,6.70
2018-03-21T07:10:00.716Z,5.20
2018-03-21T07:11:00.731Z,5.10
2018-03-21T07:12:00.754Z,5.50
2018-03-21T07:13:00.766Z,4.60
2018-03-21T07:14:00.783Z,4.50
2018-03-21T07:15:00.804Z,4.80
2018-03-21T07:16:00.826Z,4.90
2018-03-21T07:17:00.835Z,4.70
2018-03-21T07:18:00.848Z,5.10
2018-03-21T07:19:00.871Z,4.80
2018-03-21T07:20:00.886Z,4.90
2018-03-21T07:21:00.902Z,4.70
2018-03-21T07:22:00.919Z,4.70
2018-03-21T07:23:00.939Z,4.80
2018-03-21T07:24:00.954Z,4.80
2018-03-21T07:25:00.970Z,5.00
2018-03-21T07:26:00.991Z,4.90
2018-03-21T07:27:01.005Z,4.60
2018-03-21T07:28:01.020Z,5.30
2018-03-21T07:29:01.044Z,5.10
2018-03-21T07:30:01.065Z,4.80
2018-03-21T07:31:01.071Z,5.20
2018-03-21T07:32:01.098Z,5.20
2018-03-21T07:33:01.109Z,4.90
2018-03-21T07:34:01.127Z,4.70
2018-03-21T07:35:01.149Z,4.40
2018-03-21T07:36:01.158Z,4.60
2018-03-21T07:37:01.181Z,4.30
2018-03-21T07:38:01.192Z,4.40
2018-03-21T07:39:01.275Z,4.40
2018-03-21T07:40:01.228Z,4.60
2018-03-21T07:41:01.247Z,4.60
2018-03-21T07:42:01.262Z,4.40
2018-03-21T07:43:01.297Z,4.60
2018-03-21T07:44:01.297Z,4.50
2018-03-21T07:45:01.319Z,4.30
2018-03-21T07:46:01.332Z,4.30
2018-03-21T07:47:01.353Z,4.20
2018-03-21T07:48:01.368Z,4.60
2018-03-21T07:49:01.382Z,4.40
2018-03-21T07:50:01.408Z,4.60
2018-03-21T07:51:01.675Z,4.60
2018-03-21T07:52:01.433Z,4.40
2018-03-21T07:53:01.464Z,4.50
2018-03-21T07:54:01.469Z,4.40
2018-03-21T07:55:01.489Z,4.60
2018-03-21T07:56:01.506Z,4.30
2018-03-21T07:57:01.522Z,4.00
2018-03-21T07:58:01.546Z,4.40
2018-03-21T07:59:01.809Z,4.70
2018-03-21T08:00:01.577Z,4.60
2018-03-21T08:01:01.593Z,4.30
2018-03-21T08:02:01.612Z,4.40
2018-03-21T08:03:01.628Z,4.40
2018-03-21T08:04:01.646Z,4.40
2018-03-21T08:05:01.670Z,4.90
2018-03-21T08:06:01.691Z,4.10
2018-03-21T08:07:01.698Z,4.10
2018-03-21T08:08:01.717Z,4.30
2018-03-21T08:09:01.736Z,4.20
2018-03-21T08:10:01.762Z,4.60
2018-03-21T08:11:01.777Z,4.50
2018-03-21T08:12:01.797Z,4.30
2018-03-21T08:13:01.807Z,3.90
2018-03-21T08:14:01.829Z,4.20
2018-03-21T08:15:01.842Z,4.40
2018-03-21T08:16:01.864Z,4.30
2018-03-21T08:17:01.881Z,4.40
2018-03-21T08:18:01.902Z,4.40
2018-03-21T08:19:01.922Z,4.00
2018-03-21T08:20:01.936Z,4.70
2018-03-21T08:21:01.954Z,4.40
2018-03-21T08:22:01.966Z,4.10
2018-03-21T08:23:01.991Z,4.90
2018-03-21T08:24:02.009Z,4.50
2018-03-21T08:25:02.039Z,4.90
2018-03-21T08:26:02.046Z,4.80
2018-03-21T08:27:02.057Z,4.90
2018-03-21T08:28:02.084Z,4.90
2018-03-21T08:29:02.153Z,4.90
2018-03-21T08:30:02.116Z,4.40
2018-03-21T08:31:02.141Z,4.10
2018-03-21T08:32:02.171Z,4.20
2018-03-21T08:33:02.179Z,4.50
2018-03-21T08:34:02.199Z,4.20
2018-03-21T08:35:02.212Z,4.00
2018-03-21T08:36:02.235Z,4.30
2018-03-21T08:37:02.247Z,4.50
2018-03-21T08:38:02.277Z,4.10
2018-03-21T08:39:02.291Z,4.20
2018-03-21T08:40:02.305Z,4.80
2018-03-21T08:41:02.326Z,4.00
2018-03-21T08:42:02.344Z,4.20
2018-03-21T08:43:02.362Z,4.50
2018-03-21T08:44:02.385Z,4.50
2018-03-21T08:45:02.404Z,4.40
2018-03-21T08:46:02.417Z,4.10
2018-03-21T08:47:02.439Z,3.90
2018-03-21T08:48:02.461Z,4.30
2018-03-21T08:49:02.476Z,4.10
2018-03-21T08:50:02.497Z,4.20
2018-03-21T08:51:02.515Z,4.50
2018-03-21T08:52:02.537Z,4.50
2018-03-21T08:53:02.554Z,4.10
2018-03-21T08:54:02.578Z,5.00
2018-03-21T08:55:02.593Z,4.20
2018-03-21T08:56:02.613Z,4.20
2018-03-21T08:57:02.638Z,4.40
2018-03-21T08:58:02.655Z,4.50
2018-03-21T08:59:02.673Z,4.00
2018-03-21T09:00:02.697Z,4.00
2018-03-21T09:01:02.712Z,4.10
2018-03-21T09:02:02.733Z,4.00
2018-03-21T09:03:02.752Z,4.10
2018-03-21T09:04:02.769Z,4.40
2018-03-21T09:05:02.790Z,4.00
2018-03-21T09:06:02.810Z,3.80
2018-03-21T09:07:02.841Z,3.80
2018-03-21T09:08:02.853Z,3.90
2018-03-21T09:09:02.871Z,3.70
2018-03-21T09:10:02.891Z,3.50
2018-03-21T09:11:02.911Z,3.60
2018-03-21T09:12:02.935Z,4.20
2018-03-21T09:13:02.950Z,4.20
2018-03-21T09:14:02.968Z,3.80
2018-03-21T09:15:02.989Z,3.90
2018-03-21T09:16:03.010Z,3.80
2018-03-21T09:17:03.031Z,3.70
2018-03-21T09:18:03.044Z,4.00
2018-03-21T09:19:03.064Z,3.70
2018-03-21T09:20:03.092Z,4.20
2018-03-21T09:21:03.115Z,3.70
2018-03-21T09:22:03.125Z,4.00
2018-03-21T09:23:03.149Z,4.10
2018-03-21T09:24:03.170Z,3.90
2018-03-21T09:25:03.185Z,3.80
2018-03-21T09:26:03.222Z,3.80
2018-03-21T09:27:03.228Z,3.50
2018-03-21T09:28:03.247Z,3.80
2018-03-21T09:29:03.278Z,3.60
2018-03-21T09:30:03.288Z,4.00
2018-03-21T09:31:03.307Z,3.20
2018-03-21T09:32:03.329Z,3.30
2018-03-21T09:33:03.350Z,3.90
2018-03-21T09:34:03.369Z,3.30
2018-03-21T09:35:03.386Z,3.50
2018-03-21T09:36:03.407Z,3.50
2018-03-21T09:37:03.433Z,3.40
2018-03-21T09:38:03.459Z,3.40
2018-03-21T09:39:03.478Z,3.60
2018-03-21T09:40:03.526Z,3.90
2018-03-21T09:41:03.514Z,3.60
2018-03-21T09:42:03.531Z,3.40
2018-03-21T09:43:03.554Z,3.60
2018-03-21T09:44:03.581Z,4.00
2018-03-21T09:45:03.588Z,3.50
2018-03-21T09:46:03.612Z,3.80
2018-03-21T09:47:03.637Z,3.90
2018-03-21T09:48:03.655Z,3.70
2018-03-21T09:49:03.674Z,3.80
2018-03-21T09:50:03.691Z,3.50
2018-03-21T09:51:03.716Z,3.70
2018-03-21T09:52:03.735Z,3.90
2018-03-21T09:53:03.751Z,4.10
2018-03-21T09:54:03.774Z,3.80
2018-03-21T09:55:03.817Z,3.40
2018-03-21T09:56:03.815Z,3.80
2018-03-21T09:57:03.835Z,3.80
2018-03-21T09:58:03.856Z,3.50
2018-03-21T09:59:03.883Z,3.90
2018-03-21T10:00:03.898Z,3.40
2018-03-21T10:01:03.928Z,3.50
2018-03-21T10:02:03.941Z,3.40
2018-03-21T10:03:03.965Z,3.70
2018-03-21T10:04:03.981Z,3.80
2018-03-21T10:05:04.006Z,3.40
2018-03-21T10:06:04.032Z,3.50
2018-03-21T10:07:04.044Z,3.70
2018-03-21T10:08:04.070Z,3.70
2018-03-21T10:09:04.091Z,3.80
2018-03-21T10:10:04.114Z,3.70
2018-03-21T10:11:04.132Z,3.40
2018-03-21T10:12:04.154Z,3.70
2018-03-21T10:13:04.188Z,3.30
2018-03-21T10:14:04.196Z,3.30
2018-03-21T10:15:04.225Z,3.60
2018-03-21T10:16:04.239Z,3.40
2018-03-21T10:17:04.263Z,3.60
2018-03-21T10:18:04.288Z,3.60
2018-03-21T10:19:04.305Z,3.50
2018-03-21T10:20:04.331Z,3.60
2018-03-21T10:21:04.353Z,3.30
2018-03-21T10:22:04.370Z,3.50
2018-03-21T10:23:04.389Z,3.80
2018-03-21T10:24:04.413Z,4.10
2018-03-21T10:25:04.440Z,3.60
2018-03-21T10:26:04.462Z,3.30
2018-03-21T10:27:04.479Z,3.70
2018-03-21T10:28:04.506Z,3.30
2018-03-21T10:29:04.532Z,3.40
2018-03-21T10:30:04.549Z,3.30
2018-03-21T10:31:04.570Z,3.30
2018-03-21T10:32:04.597Z,3.40
2018-03-21T10:33:04.615Z,3.30
2018-03-21T10:34:04.643Z,3.10
2018-03-21T10:35:04.663Z,3.30
2018-03-21T10:36:04.682Z,3.20
2018-03-21T10:37:04.707Z,3.00
2018-03-21T10:38:04.727Z,3.20
2018-03-21T10:39:04.753Z,3.10
2018-03-21T10:40:04.777Z,3.20
2018-03-21T10:41:04.790Z,3.20
2018-03-21T10:42:04.817Z,3.20
2018-03-21T10:43:04.838Z,3.20
2018-03-21T10:44:04.865Z,3.20
2018-03-21T10:45:04.912Z,3.40
2018-03-21T10:46:04.903Z,3.50
2018-03-21T10:47:04.928Z,3.30
2018-03-21T10:48:04.948Z,3.40
2018-03-21T10:49:04.976Z,3.70
2018-03-21T10:50:04.993Z,3.30
2018-03-21T10:51:05.019Z,3.40
2018-03-21T10:52:05.047Z,3.10
2018-03-21T10:53:05.323Z,3.30
2018-03-21T10:54:05.116Z,3.50
2018-03-21T10:55:05.108Z,3.30
2018-03-21T10:56:05.131Z,3.30
2018-03-21T10:57:05.147Z,3.30
2018-03-21T10:58:05.171Z,3.50
2018-03-21T10:59:05.214Z,3.40
2018-03-21T11:00:05.217Z,3.20
2018-03-21T11:01:05.246Z,3.20
2018-03-21T11:02:05.338Z,3.00
2018-03-21T11:03:05.287Z,3.30
2018-03-21T11:04:05.306Z,3.30
2018-03-21T11:05:05.329Z,3.40
2018-03-21T11:06:05.354Z,3.40
2018-03-21T11:07:05.373Z,3.60
2018-03-21T11:08:05.446Z,3.40
2018-03-21T11:09:05.419Z,3.20
2018-03-21T11:10:05.437Z,4.60
2018-03-21T11:11:05.458Z,3.20
2018-03-21T11:12:05.484Z,3.70
2018-03-21T11:13:05.509Z,2.70
2018-03-21T11:14:05.525Z,3.20
2018-03-21T11:15:05.547Z,3.60
2018-03-21T11:16:05.576Z,4.00
2018-03-21T11:17:05.597Z,3.70
2018-03-21T11:18:05.631Z,3.40
2018-03-21T11:19:05.645Z,3.60
2018-03-21T11:20:05.665Z,3.80
2018-03-21T11:21:05.680Z,4.30
2018-03-21T11:22:05.705Z,3.80
2018-03-21T11:23:05.725Z,3.80
2018-03-21T11:24:05.745Z,4.10
2018-03-21T11:25:05.765Z,3.80
2018-03-21T11:26:05.790Z,4.60
2018-03-21T11:27:05.820Z,4.70
2018-03-21T11:28:05.836Z,4.70
2018-03-21T11:29:05.859Z,4.50
2018-03-21T11:30:05.881Z,5.00
2018-03-21T11:31:05.896Z,4.60
2018-03-21T11:32:06.178Z,5.10
2018-03-21T11:33:05.942Z,5.10
2018-03-21T11:34:06.007Z,4.90
2018-03-21T11:35:05.990Z,5.00
2018-03-21T11:36:06.006Z,4.70
2018-03-21T11:37:06.026Z,5.20
2018-03-21T11:38:06.044Z,5.10
2018-03-21T11:39:06.088Z,5.20
2018-03-21T11:40:06.090Z,5.30
2018-03-21T11:41:06.114Z,4.90
2018-03-21T11:42:06.137Z,5.70
2018-03-21T11:43:06.157Z,5.20
2018-03-21T11:44:06.173Z,5.50
2018-03-21T11:45:06.197Z,5.20
2018-03-21T11:46:06.216Z,5.30
2018-03-21T11:47:06.234Z,5.20
2018-03-21T11:48:06.253Z,5.10
2018-03-21T11:49:06.290Z,5.70
2018-03-21T11:50:06.299Z,5.80
2018-03-21T11:51:06.322Z,5.70
2018-03-21T11:52:06.344Z,5.40
2018-03-21T11:53:06.364Z,5.80
2018-03-21T11:54:06.393Z,5.80
2018-03-21T11:55:06.404Z,5.70
2018-03-21T11:56:06.424Z,6.40
2018-03-21T11:57:06.447Z,6.20
2018-03-21T11:58:06.465Z,6.20
2018-03-21T11:59:06.486Z,6.20
2018-03-21T12:00:06.512Z,5.90
2018-03-21T12:01:06.534Z,6.20
2018-03-21T12:02:06.552Z,6.00
2018-03-21T12:03:06.570Z,6.00
2018-03-21T12:04:06.593Z,5.70
2018-03-21T12:05:06.628Z,6.00
2018-03-21T12:06:06.642Z,5.80
2018-03-21T12:07:06.659Z,6.10
2018-03-21T12:08:06.678Z,6.10
2018-03-21T12:09:06.703Z,7.30
2018-03-21T12:10:06.717Z,6.70
2018-03-21T12:11:06.749Z,7.10
2018-03-21T12:12:06.758Z,7.20
2018-03-21T12:13:06.784Z,6.80
2018-03-21T12:14:06.800Z,6.90
2018-03-21T12:15:06.822Z,6.10
2018-03-21T12:16:06.847Z,6.30
2018-03-21T12:17:06.861Z,6.50
2018-03-21T12:18:06.886Z,6.80
2018-03-21T12:19:06.904Z,6.80
2018-03-21T12:20:06.926Z,6.30
2018-03-21T12:21:06.944Z,7.20
2018-03-21T12:22:06.963Z,7.80
2018-03-21T12:23:06.988Z,7.00
2018-03-21T12:24:07.015Z,7.80
2018-03-21T12:25:07.039Z,7.70
2018-03-21T12:26:07.054Z,7.50
2018-03-21T12:27:07.067Z,7.30
2018-03-21T12:28:07.107Z,6.30
2018-03-21T12:29:07.112Z,6.20
2018-03-21T12:30:07.131Z,6.60
2018-03-21T12:31:07.152Z,6.30
2018-03-21T12:32:07.169Z,6.70
2018-03-21T12:33:07.192Z,7.00
2018-03-21T12:34:07.221Z,7.20
2018-03-21T12:35:07.234Z,7.40
2018-03-21T12:36:07.256Z,7.80
2018-03-21T12:37:07.274Z,7.30
2018-03-21T12:38:07.309Z,7.70
2018-03-21T12:39:07.312Z,7.50
2018-03-21T12:40:07.331Z,7.30
2018-03-21T12:41:07.354Z,7.50
2018-03-21T12:42:07.371Z,7.50
2018-03-21T12:43:07.395Z,7.50
2018-03-21T12:44:07.409Z,6.60
2018-03-21T12:45:07.434Z,7.00
2018-03-21T12:46:07.455Z,6.80
2018-03-21T12:47:07.471Z,7.30
2018-03-21T12:48:07.498Z,7.00
2018-03-21T12:49:07.512Z,7.70
2018-03-21T12:50:07.548Z,7.80
2018-03-21T12:51:07.553Z,7.80
2018-03-21T12:52:07.579Z,7.50
2018-03-21T12:53:07.606Z,7.60
2018-03-21T12:54:07.621Z,7.80
2018-03-21T12:55:07.638Z,7.80
2018-03-21T12:56:07.757Z,8.10
2018-03-21T12:57:07.679Z,8.20
2018-03-21T12:58:07.702Z,8.10
2018-03-21T12:59:07.719Z,8.10
2018-03-21T13:00:07.740Z,8.20
2018-03-21T13:01:07.755Z,7.50
2018-03-21T13:02:07.793Z,8.00
2018-03-21T13:03:07.797Z,7.70
2018-03-21T13:04:07.819Z,7.60
2018-03-21T13:05:07.840Z,7.80
2018-03-21T13:06:07.860Z,7.40
2018-03-21T13:07:07.881Z,8.20
2018-03-21T13:08:07.901Z,7.60
2018-03-21T13:09:08.171Z,7.40
2018-03-21T13:10:07.940Z,8.30
2018-03-21T13:11:07.967Z,8.00
2018-03-21T13:12:07.987Z,8.20
2018-03-21T13:13:08.012Z,8.30
2018-03-21T13:14:08.041Z,8.40
2018-03-21T13:15:08.046Z,7.60
2018-03-21T13:16:08.070Z,7.60
2018-03-21T13:17:08.091Z,8.00
2018-03-21T13:18:08.112Z,7.70
2018-03-21T13:19:08.131Z,7.30